Time;durP1;ratioP1;P1;durP2;ratioP2;P2;SDS_P1;SDS_P2;PMS_P1;PMS_P2;Temp;Humidity;BMP_temperature;BMP_pressure;BME280_temperature;BME280_humidity;BME280_pressure;Samples;Min_cycle;Max_cycle;Signal;HPM_P1;HPM_P2
2023/01/17 00:02:12;;;;;;;2.55;1.05;;;4.00;99.90;;;;;;5054337;28;20032;-87
2023/01/17 00:10:11;;;;;;;2.35;0.77;;;3.70;99.90;;;;;;5070214;28;20040;-90
2023/01/17 00:12:38;;;;;;;2.92;0.90;;;3.70;99.90;;;;;;5074574;28;20040;-88
2023/01/17 00:15:05;;;;;;;3.30;1.05;;;3.70;99.90;;;;;;5064748;28;20055;-88
2023/01/17 00:17:31;;;;;;;1.42;0.80;;;3.60;99.90;;;;;;5067430;28;20127;-88
2023/01/17 00:26:02;;;;;;;1.02;0.70;;;3.40;99.90;;;;;;5062966;28;20036;-88
2023/01/17 01:35:24;;;;;;;9.43;1.50;;;4.60;99.90;;;;;;5074945;28;20045;-87
2023/01/17 01:37:50;;;;;;;4.43;1.48;;;4.00;99.90;;;;;;5051140;28;20051;-86
2023/01/17 01:40:20;;;;;;;8.07;1.80;;;5.40;99.90;;;;;;5030339;28;20507;-88
2023/01/17 01:42:54;;;;;;;9.13;1.67;;;1.70;99.90;;;;;;5066778;28;20040;-87
2023/01/17 01:45:25;;;;;;;6.97;1.70;;;4.10;99.90;;;;;;5057946;28;20051;-88
2023/01/17 01:47:59;;;;;;;9.07;1.80;;;4.00;99.90;;;;;;5056402;28;20117;-87
2023/01/17 01:50:27;;;;;;;9.40;1.52;;;4.00;99.90;;;;;;5051919;28;20032;-88
2023/01/17 01:52:56;;;;;;;6.63;1.50;;;3.80;99.90;;;;;;5057311;28;20051;-89
2023/01/17 01:55:30;;;;;;;3.88;1.00;;;3.70;99.90;;;;;;5064252;28;20036;-87
2023/01/17 01:58:01;;;;;;;5.53;1.45;;;3.70;99.90;;;;;;5071254;28;20611;-87
2023/01/17 02:00:32;;;;;;;8.98;1.40;;;4.90;99.90;;;;;;5069674;28;20040;-87
2023/01/17 02:03:03;;;;;;;5.97;1.30;;;5.60;99.90;;;;;;5071842;28;20041;-87
2023/01/17 02:05:30;;;;;;;7.32;1.42;;;3.70;99.90;;;;;;5057107;28;20511;-88
2023/01/17 02:08:06;;;;;;;6.75;1.40;;;4.70;99.90;;;;;;5056523;28;20048;-88
2023/01/17 02:10:38;;;;;;;6.28;1.33;;;3.80;99.90;;;;;;5065555;28;20393;-87
2023/01/17 02:13:07;;;;;;;8.95;1.50;;;5.70;99.90;;;;;;5068821;28;20040;-89
2023/01/17 02:15:44;;;;;;;5.97;1.73;;;3.70;99.90;;;;;;5052232;28;20407;-86
2023/01/17 02:18:32;;;;;;;13.95;1.73;;;3.80;99.90;;;;;;5062289;28;20048;-86
2023/01/17 02:21:17;;;;;;;8.40;1.98;;;3.80;99.90;;;;;;5065484;28;20052;-88
2023/01/17 02:24:01;;;;;;;11.25;2.20;;;3.80;99.90;;;;;;5070938;28;20039;-87
2023/01/17 02:26:43;;;;;;;6.90;2.00;;;3.80;99.90;;;;;;5066119;28;20032;-87
2023/01/17 02:29:29;;;;;;;11.32;1.92;;;4.30;99.90;;;;;;5079433;28;20036;-88
2023/01/17 02:32:09;;;;;;;9.70;1.58;;;3.90;99.90;;;;;;5073787;28;20032;-87
2023/01/17 02:34:52;;;;;;;9.05;1.88;;;3.90;99.90;;;;;;5060151;28;20044;-87
2023/01/17 02:37:39;;;;;;;11.95;2.25;;;3.80;99.90;;;;;;5072319;28;20040;-86
2023/01/17 02:40:23;;;;;;;9.48;1.73;;;3.80;99.90;;;;;;5052853;28;20408;-88
2023/01/17 02:42:55;;;;;;;9.27;1.70;;;4.10;99.90;;;;;;5070730;28;20127;-88
2023/01/17 02:45:21;;;;;;;9.25;1.90;;;3.90;99.90;;;;;;5066667;28;20039;-87
2023/01/17 02:47:47;;;;;;;10.30;2.10;;;3.80;99.90;;;;;;5040863;28;20056;-86
2023/01/17 02:50:41;;;;;;;5.70;1.33;;;4.00;99.90;;;;;;5058903;28;20062;-90
2023/01/17 02:53:09;;;;;;;8.35;2.03;;;4.00;99.90;;;;;;5050410;28;20042;-87
2023/01/17 02:56:01;;;;;;;9.85;2.08;;;4.50;99.90;;;;;;5053101;28;20070;-88
2023/01/17 02:58:53;;;;;;;8.98;1.67;;;4.00;99.90;;;;;;5059850;28;20198;-87
2023/01/17 03:01:37;;;;;;;6.87;1.60;;;4.60;99.90;;;;;;5069082;28;20028;-88
2023/01/17 03:04:31;;;;;;;6.35;1.40;;;3.90;99.90;;;;;;5071952;28;20051;-88
2023/01/17 03:07:01;;;;;;;7.00;1.42;;;3.90;99.90;;;;;;5057259;28;20047;-88
2023/01/17 03:09:29;;;;;;;8.68;1.65;;;3.90;99.90;;;;;;5073083;28;20509;-87
2023/01/17 03:11:56;;;;;;;6.82;1.55;;;5.50;99.90;;;;;;5053599;28;20036;-88
2023/01/17 03:14:22;;;;;;;10.43;1.67;;;4.00;99.90;;;;;;5045799;28;20085;-88
2023/01/17 03:16:48;;;;;;;8.40;1.50;;;4.00;99.90;;;;;;5060376;28;20036;-88
2023/01/17 03:19:14;;;;;;;10.52;1.60;;;3.90;99.90;;;;;;5056150;28;20434;-88
2023/01/17 03:21:41;;;;;;;13.18;2.30;;;;;;;;;;5066076;28;20033;-92
2023/01/17 03:24:07;;;;;;;9.02;1.50;;;4.00;99.90;;;;;;5052268;28;20040;-87
2023/01/17 03:26:32;;;;;;;8.45;1.60;;;3.90;99.90;;;;;;5065830;28;20032;-88
2023/01/17 03:28:58;;;;;;;9.45;1.90;;;3.90;99.90;;;;;;5056230;28;20137;-87
2023/01/17 03:31:24;;;;;;;8.20;1.60;;;3.80;99.90;;;;;;5043341;28;20032;-87
2023/01/17 03:33:50;;;;;;;11.85;1.85;;;4.60;99.90;;;;;;5039514;28;20127;-87
2023/01/17 03:36:15;;;;;;;10.75;1.88;;;3.80;99.90;;;;;;5047319;28;20055;-88
2023/01/17 03:38:41;;;;;;;8.15;1.60;;;4.10;99.90;;;;;;5059802;28;20062;-89
2023/01/17 03:41:07;;;;;;;9.90;1.73;;;3.70;99.90;;;;;;5072920;28;20036;-88
2023/01/17 03:43:33;;;;;;;13.00;2.17;;;;;;;;;;5056342;28;20037;-89
2023/01/17 03:46:05;;;;;;;9.07;1.80;;;3.70;99.90;;;;;;5063901;28;20463;-88
2023/01/17 03:48:31;;;;;;;11.70;2.20;;;3.60;99.90;;;;;;5074585;28;20092;-87
2023/01/17 03:51:02;;;;;;;9.75;1.80;;;3.50;99.90;;;;;;5070079;28;20093;-87
2023/01/17 03:53:28;;;;;;;10.35;1.77;;;4.70;99.90;;;;;;5050551;28;20045;-89
2023/01/17 03:55:54;;;;;;;8.52;1.60;;;2.50;99.90;;;;;;5048501;28;20054;-87
2023/01/17 03:58:19;;;;;;;9.20;2.00;;;4.80;99.90;;;;;;5060822;28;21511;-88
2023/01/17 04:00:45;;;;;;;8.63;1.90;;;3.40;99.90;;;;;;5074681;28;20106;-87
2023/01/17 04:03:11;;;;;;;8.68;1.70;;;;;;;;;;5042367;28;20040;-88
2023/01/17 04:05:37;;;;;;;11.30;2.10;;;3.40;99.90;;;;;;5070552;28;20074;-88
2023/01/17 04:08:05;;;;;;;13.20;1.60;;;;;;;;;;5038383;28;20032;-87
2023/01/17 04:10:31;;;;;;;10.90;2.25;;;3.40;99.90;;;;;;5074664;28;20047;-87
2023/01/17 04:12:58;;;;;;;7.18;1.60;;;3.40;99.90;;;;;;5055109;28;20113;-88
2023/01/17 04:15:23;;;;;;;10.30;2.25;;;3.30;99.90;;;;;;5049353;28;20040;-88
2023/01/17 04:17:49;;;;;;;8.07;1.77;;;3.30;99.90;;;;;;5060035;28;20040;-90
2023/01/17 04:20:28;;;;;;;8.82;1.70;;;3.30;99.90;;;;;;5067092;28;20097;-89
2023/01/17 04:22:54;;;;;;;9.95;1.70;;;3.20;99.90;;;;;;5072063;28;20041;-87
2023/01/17 04:25:20;;;;;;;6.50;1.60;;;4.30;99.90;;;;;;5054378;28;20037;-90
2023/01/17 04:27:45;;;;;;;10.82;1.90;;;4.10;99.90;;;;;;5060009;28;20066;-87
2023/01/17 04:30:11;;;;;;;11.20;1.95;;;3.20;99.90;;;;;;5072414;28;20044;-88
2023/01/17 04:32:37;;;;;;;9.57;1.90;;;3.10;99.90;;;;;;5066250;28;20396;-88
2023/01/17 04:35:03;;;;;;;7.90;1.70;;;;;;;;;;5044450;28;20040;-88
2023/01/17 04:37:29;;;;;;;6.72;1.70;;;3.20;99.90;;;;;;5073455;28;20078;-88
2023/01/17 04:39:55;;;;;;;8.65;1.67;;;3.10;99.90;;;;;;5067206;28;20036;-87
2023/01/17 04:42:21;;;;;;;8.48;1.55;;;3.10;99.90;;;;;;5047597;28;20595;-86
2023/01/17 04:44:46;;;;;;;9.48;1.70;;;3.10;99.90;;;;;;5065103;28;20603;-88
2023/01/17 04:47:12;;;;;;;7.65;1.70;;;3.70;99.90;;;;;;5046955;28;20127;-89
2023/01/17 04:49:38;;;;;;;8.23;1.55;;;3.00;99.90;;;;;;5067657;28;20040;-87
2023/01/17 04:52:04;;;;;;;5.65;1.50;;;3.00;99.90;;;;;;5049673;28;20043;-88
2023/01/17 04:54:32;;;;;;;7.93;1.60;;;4.10;99.90;;;;;;5073924;28;20282;-88
2023/01/17 04:56:58;;;;;;;13.70;1.95;;;2.90;99.90;;;;;;5054383;28;20131;-89
2023/01/17 04:59:24;;;;;;;11.13;1.38;;;;;;;;;;5065941;28;20127;-88
2023/01/17 05:01:50;;;;;;;11.48;1.95;;;2.90;99.90;;;;;;5062263;28;20036;-89
2023/01/17 05:04:16;;;;;;;10.05;1.70;;;2.90;99.90;;;;;;5079832;28;20520;-89
2023/01/17 05:06:43;;;;;;;6.93;1.35;;;;;;;;;;5055503;28;20626;-88
2023/01/17 05:09:09;;;;;;;11.93;1.63;;;2.80;99.90;;;;;;5073401;28;20393;-87
2023/01/17 05:11:35;;;;;;;12.35;2.13;;;2.40;99.90;;;;;;5066640;28;20049;-88
2023/01/17 05:14:01;;;;;;;11.02;1.98;;;;;;;;;;5065693;28;20567;-89
2023/01/17 05:16:27;;;;;;;10.57;1.63;;;2.80;99.90;;;;;;5068404;28;20578;-87
2023/01/17 05:18:53;;;;;;;6.57;1.75;;;2.80;99.90;;;;;;5058974;28;20080;-88
2023/01/17 05:21:20;;;;;;;9.20;1.65;;;2.70;99.90;;;;;;5087688;28;20044;-87
2023/01/17 05:23:46;;;;;;;11.75;1.70;;;2.80;99.90;;;;;;5069880;28;20094;-88
2023/01/17 05:26:12;;;;;;;8.38;1.90;;;;;;;;;;5057342;28;20107;-88
2023/01/17 05:28:38;;;;;;;13.15;1.67;;;2.70;99.90;;;;;;5079398;28;20137;-87
2023/01/17 05:31:04;;;;;;;9.18;1.60;;;2.70;99.90;;;;;;5057657;28;20072;-88
2023/01/17 05:33:29;;;;;;;8.75;1.60;;;2.80;99.90;;;;;;5096866;28;20071;-86
2023/01/17 05:35:56;;;;;;;7.43;1.30;;;2.70;99.90;;;;;;5045143;28;20046;-88
2023/01/17 05:38:23;;;;;;;8.38;1.60;;;4.10;99.90;;;;;;5061258;28;20583;-89
2023/01/17 05:40:49;;;;;;;8.13;1.70;;;;;;;;;;5049572;28;20041;-89
2023/01/17 05:43:15;;;;;;;9.05;1.90;;;;;;;;;;5078782;28;20747;-87
2023/01/17 05:45:41;;;;;;;10.10;2.10;;;2.60;99.90;;;;;;5077965;28;20036;-87
2023/01/17 05:48:08;;;;;;;7.72;1.60;;;2.60;99.90;;;;;;5063468;28;20063;-88
2023/01/17 05:50:36;;;;;;;5.45;1.45;;;3.00;99.90;;;;;;5047025;28;20036;-88
2023/01/17 05:53:10;;;;;;;6.40;1.60;;;2.50;99.90;;;;;;5064880;28;20044;-88
2023/01/17 05:55:37;;;;;;;5.90;1.40;;;2.50;99.90;;;;;;5059967;28;20181;-88
2023/01/17 05:58:04;;;;;;;8.95;2.05;;;2.40;99.90;;;;;;5079124;28;20064;-87
2023/01/17 06:00:30;;;;;;;9.60;1.70;;;3.50;99.90;;;;;;5061246;28;20140;-86
2023/01/17 06:02:58;;;;;;;6.85;1.70;;;2.30;99.90;;;;;;5065339;28;20040;-86
2023/01/17 06:05:25;;;;;;;7.95;1.65;;;2.30;99.90;;;;;;5060283;28;20060;-88
2023/01/17 06:07:51;;;;;;;6.97;1.42;;;2.20;99.90;;;;;;5061760;28;20039;-87
2023/01/17 06:10:19;;;;;;;8.07;1.42;;;3.50;99.90;;;;;;5090934;28;20036;-88
2023/01/17 06:12:45;;;;;;;6.90;1.50;;;;;;;;;;5067503;28;20040;-88
2023/01/17 06:15:13;;;;;;;5.07;1.20;;;2.10;99.90;;;;;;5081174;28;20488;-89
2023/01/17 06:17:39;;;;;;;12.00;1.58;;;2.10;99.90;;;;;;5054102;28;20070;-87
2023/01/17 06:20:06;;;;;;;9.68;1.95;;;1.80;99.90;;;;;;5065297;28;20512;-87
2023/01/17 06:22:33;;;;;;;6.32;1.52;;;1.80;99.90;;;;;;5056581;28;20056;-87
2023/01/17 06:24:59;;;;;;;7.72;1.73;;;2.00;99.90;;;;;;5080488;28;20036;-88
2023/01/17 06:27:25;;;;;;;9.43;1.63;;;2.10;99.90;;;;;;5062422;28;20038;-87
2023/01/17 06:29:51;;;;;;;9.35;2.30;;;2.10;99.90;;;;;;5084005;28;20131;-88
2023/01/17 06:32:17;;;;;;;10.75;1.92;;;;;;;;;;5034180;28;20028;-87
2023/01/17 06:34:43;;;;;;;8.52;1.40;;;2.10;99.90;;;;;;5066253;28;20040;-87
2023/01/17 06:37:09;;;;;;;9.65;1.60;;;2.10;99.90;;;;;;5065027;28;20032;-87
2023/01/17 06:39:35;;;;;;;6.50;1.40;;;2.00;99.90;;;;;;5059681;28;20040;-85
2023/01/17 06:42:00;;;;;;;8.32;1.60;;;2.00;99.90;;;;;;5041872;28;20047;-87
2023/01/17 06:44:26;;;;;;;9.40;1.75;;;1.90;99.90;;;;;;5081900;28;20419;-88
2023/01/17 06:46:52;;;;;;;11.90;1.63;;;2.00;99.90;;;;;;5065525;28;20051;-88
2023/01/17 06:49:19;;;;;;;10.15;2.00;;;;;;;;;;5071588;28;20402;-88
2023/01/17 06:51:44;;;;;;;12.75;1.73;;;2.00;99.90;;;;;;5086103;28;20044;-89
2023/01/17 06:54:10;;;;;;;8.15;1.50;;;1.90;99.90;;;;;;5050837;28;20047;-88
2023/01/17 06:56:39;;;;;;;8.77;1.60;;;1.90;99.90;;;;;;5064531;28;20047;-89
2023/01/17 06:59:05;;;;;;;5.78;1.30;;;1.90;99.90;;;;;;5070060;28;20036;-88
2023/01/17 07:01:31;;;;;;;7.28;1.65;;;1.90;99.90;;;;;;5070435;28;20516;-89
2023/01/17 07:03:56;;;;;;;9.95;1.90;;;1.90;99.90;;;;;;5064590;28;20044;-87
2023/01/17 07:06:27;;;;;;;11.25;2.03;;;1.80;99.90;;;;;;5067502;28;20044;-88
2023/01/17 07:08:54;;;;;;;10.65;1.90;;;1.90;99.90;;;;;;5070117;28;20071;-88
2023/01/17 07:11:20;;;;;;;11.85;2.30;;;1.90;99.90;;;;;;5055276;28;20036;-88
2023/01/17 07:13:46;;;;;;;7.05;1.55;;;;;;;;;;5069533;28;20097;-88
2023/01/17 07:16:12;;;;;;;8.05;1.77;;;1.90;99.90;;;;;;5051692;28;20059;-91
2023/01/17 07:18:37;;;;;;;6.15;1.73;;;1.80;99.90;;;;;;5066394;28;20396;-89
2023/01/17 07:21:03;;;;;;;8.32;1.67;;;;;;;;;;5061985;28;20508;-87
2023/01/17 07:23:29;;;;;;;5.97;1.33;;;1.90;99.90;;;;;;5054147;28;20131;-86
2023/01/17 07:25:57;;;;;;;6.07;1.75;;;3.30;99.90;;;;;;5046664;28;20048;-87
2023/01/17 07:28:24;;;;;;;5.75;1.33;;;2.20;99.90;;;;;;5064746;28;20089;-88
2023/01/17 07:30:51;;;;;;;7.18;1.58;;;1.80;99.90;;;;;;5059782;28;20035;-88
2023/01/17 07:33:17;;;;;;;9.40;1.50;;;1.80;99.90;;;;;;5082252;28;20523;-86
2023/01/17 07:35:43;;;;;;;4.88;1.30;;;3.20;99.90;;;;;;5045030;28;20044;-86
2023/01/17 07:38:17;;;;;;;7.30;1.63;;;2.90;99.90;;;;;;5064836;28;20044;-87
2023/01/17 07:40:45;;;;;;;7.00;1.40;;;1.80;99.90;;;;;;5066486;28;20044;-87
2023/01/17 07:43:15;;;;;;;6.70;1.60;;;2.20;99.90;;;;;;5064069;28;20044;-88
2023/01/17 07:45:49;;;;;;;7.87;1.50;;;1.80;99.90;;;;;;5050372;28;20042;-87
2023/01/17 07:48:20;;;;;;;4.78;1.40;;;1.70;99.90;;;;;;5066278;28;20044;-87
2023/01/17 07:51:04;;;;;;;7.90;1.40;;;1.70;99.90;;;;;;5066642;28;20119;-87
2023/01/17 07:53:32;;;;;;;6.25;1.48;;;1.80;99.90;;;;;;5061163;28;20500;-85
2023/01/17 07:56:06;;;;;;;9.75;1.65;;;2.50;99.90;;;;;;5066210;28;20151;-86
2023/01/17 07:58:33;;;;;;;7.95;1.55;;;1.80;99.90;;;;;;5049185;28;20128;-86
2023/01/17 08:01:11;;;;;;;5.78;1.40;;;2.40;99.90;;;;;;5076990;28;20059;-85
2023/01/17 08:03:40;;;;;;;7.70;1.58;;;1.80;99.90;;;;;;5063858;28;20040;-88
2023/01/17 08:06:17;;;;;;;7.43;1.60;;;1.70;99.90;;;;;;5062821;28;20040;-87
2023/01/17 08:08:49;;;;;;;5.10;1.50;;;1.80;99.90;;;;;;5066265;28;20040;-88
2023/01/17 08:11:15;;;;;;;6.88;1.60;;;;;;;;;;5061221;28;20066;-87
2023/01/17 08:13:41;;;;;;;6.47;1.40;;;1.70;99.90;;;;;;5049570;28;20036;-85
2023/01/17 08:16:09;;;;;;;7.65;1.70;;;1.70;99.90;;;;;;5044554;28;20046;-85
2023/01/17 08:18:35;;;;;;;3.42;1.30;;;1.80;99.90;;;;;;5084752;28;20582;-88
2023/01/17 08:21:01;;;;;;;7.20;1.75;;;3.70;99.90;;;;;;5048996;28;20055;-86
2023/01/17 08:23:27;;;;;;;6.63;1.60;;;1.80;99.90;;;;;;5063135;28;20047;-83
2023/01/17 08:25:59;;;;;;;6.13;1.60;;;1.80;99.90;;;;;;5052363;28;20032;-85
2023/01/17 08:28:24;;;;;;;7.53;1.80;;;1.80;99.90;;;;;;5049846;28;20051;-87
2023/01/17 08:30:50;;;;;;;6.13;1.70;;;;;;;;;;5059281;28;20036;-87
2023/01/17 08:33:19;;;;;;;4.32;1.33;;;2.00;99.90;;;;;;5064742;28;20028;-88
2023/01/17 08:35:54;;;;;;;4.80;1.55;;;2.00;99.90;;;;;;5063889;28;20040;-88
2023/01/17 08:38:22;;;;;;;9.00;1.55;;;2.00;99.90;;;;;;5056758;28;20413;-89
2023/01/17 08:40:51;;;;;;;7.43;1.42;;;2.10;99.90;;;;;;5050655;28;20051;-89
2023/01/17 08:43:20;;;;;;;6.03;1.65;;;;;;;;;;5066200;28;20072;-89
2023/01/17 08:45:47;;;;;;;7.90;1.83;;;2.20;99.90;;;;;;5076424;28;20390;-89
2023/01/17 08:48:14;;;;;;;8.82;1.58;;;2.20;99.90;;;;;;5067842;28;20044;-88
2023/01/17 08:50:45;;;;;;;4.15;1.33;;;2.30;99.90;;;;;;5059277;28;20450;-89
2023/01/17 08:53:21;;;;;;;4.78;1.40;;;2.30;99.90;;;;;;5056541;28;20052;-91
2023/01/17 08:56:02;;;;;;;7.32;2.10;;;2.40;99.90;;;;;;5062950;28;20052;-89
2023/01/17 08:58:34;;;;;;;8.52;1.75;;;;;;;;;;5067778;28;20066;-89
2023/01/17 09:01:07;;;;;;;12.82;1.98;;;2.60;99.90;;;;;;5068092;28;20468;-89
2023/01/17 09:03:33;;;;;;;7.78;1.80;;;2.60;99.90;;;;;;5077748;28;20040;-86
2023/01/17 09:06:13;;;;;;;5.72;1.42;;;2.70;99.90;;;;;;5084383;28;20868;-88
2023/01/17 09:08:40;;;;;;;6.95;1.65;;;2.70;99.90;;;;;;5066067;28;20489;-86
2023/01/17 09:11:08;;;;;;;8.48;1.65;;;2.80;99.90;;;;;;5063473;28;20051;-85
2023/01/17 09:13:37;;;;;;;12.90;1.80;;;4.20;99.90;;;;;;5057972;28;20040;-87
2023/01/17 09:16:04;;;;;;;8.00;1.60;;;3.00;99.90;;;;;;5072355;28;20039;-87
2023/01/17 09:18:31;;;;;;;5.40;1.60;;;3.00;99.90;;;;;;5080391;28;20425;-85
2023/01/17 09:21:15;;;;;;;6.90;1.50;;;3.00;99.90;;;;;;5067099;28;20448;-85
2023/01/17 09:23:40;;;;;;;7.65;1.60;;;3.50;99.90;;;;;;5081016;28;20046;-86
2023/01/17 09:26:18;;;;;;;6.25;1.60;;;3.10;99.90;;;;;;5079160;28;20040;-87
2023/01/17 09:28:44;;;;;;;4.65;1.25;;;4.10;99.90;;;;;;5063765;28;20040;-86
2023/01/17 09:31:10;;;;;;;4.50;1.20;;;4.70;99.90;;;;;;5058971;28;20044;-86
2023/01/17 09:33:36;;;;;;;7.03;1.40;;;3.20;99.90;;;;;;5067593;28;20076;-85
2023/01/17 09:36:03;;;;;;;5.63;1.30;;;3.20;99.90;;;;;;5079123;28;20401;-87
2023/01/17 09:38:29;;;;;;;5.35;1.40;;;3.30;99.90;;;;;;5056964;28;20044;-86
2023/01/17 09:40:55;;;;;;;6.68;1.40;;;3.30;99.90;;;;;;5058855;28;20094;-89
2023/01/17 09:43:28;;;;;;;6.97;1.67;;;4.60;99.90;;;;;;5082243;28;20055;-87
2023/01/17 09:45:53;;;;;;;5.95;1.38;;;3.50;99.90;;;;;;5063242;28;20036;-85
2023/01/17 09:48:43;;;;;;;3.10;1.10;;;3.60;99.90;;;;;;5045373;28;20049;-87
2023/01/17 09:51:17;;;;;;;7.10;1.70;;;3.60;99.90;;;;;;5080034;28;20123;-86
2023/01/17 09:53:43;;;;;;;9.40;1.60;;;3.70;99.90;;;;;;5078496;28;20519;-89
2023/01/17 09:56:14;;;;;;;6.82;1.48;;;3.70;99.90;;;;;;5057715;28;20040;-90
2023/01/17 09:59:06;;;;;;;6.20;1.50;;;4.80;99.90;;;;;;5078372;28;20047;-89
2023/01/17 10:02:05;;;;;;;7.80;1.70;;;3.70;99.90;;;;;;5061082;28;20078;-87
2023/01/17 10:04:42;;;;;;;5.93;1.52;;;3.70;99.90;;;;;;5064588;28;20044;-88
2023/01/17 10:07:32;;;;;;;4.43;1.27;;;3.80;99.90;;;;;;5065150;28;20500;-88
2023/01/17 10:10:04;;;;;;;3.67;1.10;;;3.80;99.90;;;;;;5094360;28;20059;-87
2023/01/17 10:12:35;;;;;;;3.63;1.10;;;3.90;99.90;;;;;;5077965;28;20170;-88
2023/01/17 10:15:20;;;;;;;1.60;0.95;;;5.50;99.90;;;;;;5065018;28;20391;-87
2023/01/17 10:18:00;;;;;;;2.80;0.90;;;3.90;99.90;;;;;;5051567;28;20040;-86
2023/01/17 10:20:33;;;;;;;0.98;0.90;;;3.90;99.90;;;;;;5076082;28;20052;-87
2023/01/17 10:23:30;;;;;;;1.55;0.80;;;4.00;99.90;;;;;;5081302;28;20044;-87
2023/01/17 10:26:13;;;;;;;1.85;0.80;;;4.00;99.90;;;;;;5066370;28;20090;-87
2023/01/17 10:28:49;;;;;;;3.63;1.05;;;4.00;99.90;;;;;;5063150;28;20926;-87
2023/01/17 10:31:23;;;;;;;3.35;1.10;;;4.00;99.90;;;;;;5076822;28;20036;-87
2023/01/17 10:33:55;;;;;;;3.05;1.30;;;4.00;99.90;;;;;;5045350;28;20123;-87
2023/01/17 10:36:26;;;;;;;9.73;1.50;;;4.00;99.90;;;;;;5073757;28;20127;-86
2023/01/17 10:38:59;;;;;;;1.17;1.00;;;4.10;99.90;;;;;;5076744;28;20036;-86
2023/01/17 10:41:28;;;;;;;;;;;4.20;99.90;;;;;;5069266;28;20035;-89
2023/01/17 10:44:16;;;;;;;4.95;1.20;;;4.30;99.90;;;;;;5081061;28;19920;-86
2023/01/17 10:46:56;;;;;;;5.95;1.50;;;4.40;99.90;;;;;;5062518;28;20036;-87
2023/01/17 10:49:25;;;;;;;3.15;1.00;;;4.60;99.90;;;;;;5083338;28;20040;-87
2023/01/17 10:52:16;;;;;;;4.38;1.20;;;4.50;99.90;;;;;;5063591;28;20348;-85
2023/01/17 10:55:02;;;;;;;4.78;1.23;;;4.60;99.90;;;;;;5049990;28;20102;-87
2023/01/17 10:57:37;;;;;;;3.05;1.17;;;4.60;99.90;;;;;;5057798;28;20048;-84
2023/01/17 11:00:12;;;;;;;1.60;0.95;;;4.60;99.90;;;;;;5077263;28;20075;-87
2023/01/17 11:02:43;;;;;;;3.05;1.13;;;4.60;99.90;;;;;;5062270;28;20101;-85
2023/01/17 11:05:35;;;;;;;4.68;1.00;;;4.60;99.90;;;;;;5063812;28;20063;-87
2023/01/17 11:08:02;;;;;;;2.42;0.90;;;5.60;99.90;;;;;;5058150;28;20067;-87
2023/01/17 11:10:39;;;;;;;2.60;0.82;;;4.60;99.90;;;;;;5065831;28;20115;-85
2023/01/17 11:13:29;;;;;;;2.15;0.90;;;4.50;99.90;;;;;;5080019;28;20043;-86
2023/01/17 11:16:05;;;;;;;2.45;0.90;;;4.60;99.90;;;;;;5080739;28;20036;-85
2023/01/17 11:18:37;;;;;;;4.07;1.17;;;4.50;99.90;;;;;;5056143;28;20090;-87
2023/01/17 11:21:22;;;;;;;3.63;1.27;;;;;;;;;;5057030;28;20409;-87
2023/01/17 11:23:55;;;;;;;4.72;1.20;;;4.40;99.90;;;;;;5064128;28;20040;-87
2023/01/17 11:26:27;;;;;;;1.50;0.90;;;4.00;99.90;;;;;;5080251;28;20050;-85
2023/01/17 11:29:32;;;;;;;2.30;1.10;;;4.40;99.90;;;;;;5063696;28;20040;-86
2023/01/17 11:32:20;;;;;;;4.45;1.20;;;5.60;99.90;;;;;;5060427;28;20048;-87
2023/01/17 11:35:11;;;;;;;3.88;1.20;;;4.40;99.90;;;;;;5062832;28;20051;-86
2023/01/17 11:37:37;;;;;;;5.30;1.40;;;4.50;99.90;;;;;;5060339;28;20089;-88
2023/01/17 11:40:30;;;;;;;2.08;1.10;;;5.80;99.90;;;;;;5046164;28;20040;-86
2023/01/17 11:43:09;;;;;;;4.28;1.30;;;4.60;99.90;;;;;;5065564;28;20044;-89
2023/01/17 11:45:36;;;;;;;5.28;1.23;;;4.60;99.90;;;;;;5061972;28;20539;-87
2023/01/17 11:48:22;;;;;;;3.85;1.25;;;4.70;99.90;;;;;;5053991;28;20081;-86
2023/01/17 11:50:58;;;;;;;8.10;1.65;;;4.70;99.90;;;;;;5053951;28;20032;-86
2023/01/17 11:53:30;;;;;;;4.93;1.50;;;5.40;99.90;;;;;;5047778;28;20522;-85
2023/01/17 11:56:07;;;;;;;9.52;1.98;;;4.80;99.90;;;;;;5060794;28;20046;-86
2023/01/17 11:58:36;;;;;;;5.47;1.45;;;4.90;99.90;;;;;;5066101;28;20039;-86
2023/01/17 12:01:20;;;;;;;6.45;1.60;;;5.30;99.90;;;;;;5065664;28;20085;-86
2023/01/17 12:04:06;;;;;;;7.47;1.80;;;5.00;99.90;;;;;;5065593;28;20036;-89
2023/01/17 12:06:55;;;;;;;8.55;1.67;;;5.00;99.90;;;;;;5067720;28;20044;-87
2023/01/17 12:09:27;;;;;;;6.63;1.50;;;5.80;99.90;;;;;;5081680;28;20515;-87
2023/01/17 12:15:18;;;;;;;7.30;1.83;;;5.10;99.90;;;;;;5081995;28;20108;-87
2023/01/17 12:18:09;;;;;;;9.73;1.98;;;5.10;99.90;;;;;;5067459;28;20058;-86
2023/01/17 12:20:42;;;;;;;13.57;3.53;;;5.10;99.90;;;;;;5068909;28;20036;-86
2023/01/17 12:23:29;;;;;;;6.85;1.98;;;5.10;99.90;;;;;;5067508;28;20040;-85
2023/01/17 12:26:26;;;;;;;8.35;2.13;;;5.00;99.90;;;;;;5073014;28;20063;-87
2023/01/17 12:29:01;;;;;;;6.10;1.70;;;5.10;99.90;;;;;;5060747;28;20037;-85
2023/01/17 12:31:37;;;;;;;6.20;1.67;;;6.50;99.90;;;;;;5058928;28;20797;-85
2023/01/17 12:34:08;;;;;;;7.43;1.83;;;5.20;99.90;;;;;;5063973;28;20039;-83
2023/01/17 12:36:51;;;;;;;2.85;1.17;;;6.00;99.90;;;;;;5064508;28;20397;-83
2023/01/17 12:39:26;;;;;;;6.43;1.50;;;5.30;99.90;;;;;;5065984;28;20097;-84
2023/01/17 12:41:55;;;;;;;4.93;1.38;;;5.90;99.90;;;;;;5067720;28;20044;-84
2023/01/17 12:44:50;;;;;;;12.25;1.92;;;6.80;99.90;;;;;;5067127;28;20036;-85
2023/01/17 12:47:19;;;;;;;5.15;1.42;;;5.30;99.90;;;;;;5079644;28;20048;-86
2023/01/17 12:49:59;;;;;;;5.47;1.40;;;5.30;99.90;;;;;;5065321;28;20477;-85
2023/01/17 12:52:36;;;;;;;5.10;1.50;;;5.30;99.90;;;;;;5066415;28;20081;-85
2023/01/17 12:55:08;;;;;;;4.38;1.50;;;5.40;99.90;;;;;;5064028;28;20390;-84
2023/01/17 12:57:41;;;;;;;8.15;1.83;;;5.40;99.90;;;;;;5077952;28;20032;-84
2023/01/17 13:00:18;;;;;;;11.43;2.65;;;5.50;99.90;;;;;;5077790;28;20414;-84
2023/01/17 13:02:56;;;;;;;11.85;3.08;;;5.60;99.90;;;;;;5080233;28;20523;-86
2023/01/17 13:05:44;;;;;;;12.60;2.53;;;6.50;99.90;;;;;;5058591;28;20039;-86
2023/01/17 13:08:37;;;;;;;7.30;1.50;;;5.60;99.90;;;;;;5068053;28;20047;-87
2023/01/17 13:11:26;;;;;;;6.38;1.67;;;5.60;99.90;;;;;;5060509;28;20132;-87
2023/01/17 13:13:56;;;;;;;5.25;1.30;;;5.60;99.90;;;;;;5068182;28;20042;-87
2023/01/17 13:16:47;;;;;;;9.73;1.58;;;5.60;99.90;;;;;;5090173;28;20044;-86
2023/01/17 13:19:26;;;;;;;7.82;1.77;;;5.60;99.90;;;;;;5059318;28;20067;-85
2023/01/17 13:21:54;;;;;;;7.13;1.45;;;5.50;99.90;;;;;;5067353;28;20099;-85
2023/01/17 13:24:43;;;;;;;5.47;1.40;;;6.50;99.90;;;;;;5050400;28;20050;-87
2023/01/17 13:27:30;;;;;;;4.60;1.42;;;5.60;99.90;;;;;;5079079;28;20571;-85
2023/01/17 13:29:59;;;;;;;5.97;1.60;;;5.50;99.90;;;;;;5062858;28;20041;-86
2023/01/17 13:32:46;;;;;;;5.15;1.33;;;5.50;99.90;;;;;;5067752;28;20031;-87
2023/01/17 13:35:43;;;;;;;5.32;1.45;;;7.10;99.90;;;;;;5078277;28;20057;-87
2023/01/17 13:38:20;;;;;;;6.60;1.90;;;5.50;99.90;;;;;;5060520;28;20125;-86
2023/01/17 13:41:20;;;;;;;6.53;1.67;;;5.50;99.90;;;;;;5069077;28;20043;-85
2023/01/17 13:44:20;;;;;;;3.08;1.25;;;5.50;99.90;;;;;;5066877;28;20032;-87
2023/01/17 13:47:05;;;;;;;6.53;1.52;;;5.50;99.90;;;;;;5041457;28;20075;-84
2023/01/17 13:49:40;;;;;;;5.15;1.67;;;5.50;99.90;;;;;;5064873;28;20032;-84
2023/01/17 13:52:18;;;;;;;7.80;1.40;;;6.40;99.90;;;;;;5063198;28;20071;-86
2023/01/17 13:55:06;;;;;;;4.88;1.50;;;5.60;99.90;;;;;;5079508;28;20036;-86
2023/01/17 13:57:45;;;;;;;4.18;1.30;;;5.70;99.90;;;;;;5059606;28;20479;-86
2023/01/17 14:00:20;;;;;;;3.22;1.10;;;5.90;99.90;;;;;;5064350;28;20480;-87
2023/01/17 14:02:50;;;;;;;2.85;1.35;;;7.10;99.90;;;;;;5061788;28;20071;-87
2023/01/17 14:05:19;;;;;;;5.22;1.30;;;6.30;99.90;;;;;;5049360;28;20040;-87
2023/01/17 14:07:53;;;;;;;5.63;1.20;;;7.00;99.90;;;;;;5060292;28;20042;-87
2023/01/17 14:10:33;;;;;;;4.18;1.30;;;6.90;99.90;;;;;;5082159;28;20032;-85
2023/01/17 14:13:00;;;;;;;4.95;1.20;;;7.00;99.90;;;;;;5067965;28;20086;-85
2023/01/17 14:15:27;;;;;;;6.20;1.25;;;6.90;99.90;;;;;;5048397;28;20040;-85
2023/01/17 14:18:32;;;;;;;6.78;1.45;;;7.90;99.90;;;;;;5046529;28;20071;-85
2023/01/17 14:21:26;;;;;;;5.25;1.63;;;7.20;99.90;;;;;;5063463;28;20123;-85
2023/01/17 14:23:58;;;;;;;5.18;1.38;;;7.40;99.90;;;;;;5052241;28;20531;-86
2023/01/17 14:26:31;;;;;;;6.47;1.30;;;7.60;99.90;;;;;;5078711;28;20055;-88
2023/01/17 14:29:18;;;;;;;5.55;1.40;;;7.70;99.90;;;;;;5058884;28;20073;-86
2023/01/17 14:31:44;;;;;;;4.80;1.20;;;7.70;99.90;;;;;;5085263;28;20128;-86
2023/01/17 14:34:20;;;;;;;4.68;1.10;;;7.90;99.90;;;;;;5050065;28;20044;-88
2023/01/17 14:36:46;;;;;;;5.47;1.42;;;;;;;;;;5086112;28;20063;-89
2023/01/17 14:39:21;;;;;;;5.07;1.30;;;8.00;99.90;;;;;;5067091;28;20032;-86
2023/01/17 14:41:47;;;;;;;2.47;1.10;;;7.90;99.90;;;;;;5048252;28;20205;-88
2023/01/17 14:44:13;;;;;;;3.83;1.23;;;7.30;99.90;;;;;;5062525;28;20139;-87
2023/01/17 14:46:47;;;;;;;5.78;1.35;;;7.10;99.90;;;;;;5044996;28;20106;-85
2023/01/17 14:49:23;;;;;;;3.78;1.10;;;6.70;99.90;;;;;;5069843;28;20056;-84
2023/01/17 14:52:03;;;;;;;4.20;1.20;;;7.20;99.90;;;;;;5082267;28;20047;-88
2023/01/17 14:54:29;;;;;;;4.63;1.30;;;7.60;99.90;;;;;;5059659;28;20040;-84